createdAt,value
2019-05-19T00:02:05.927Z,85.90
2019-05-19T00:04:34.738Z,86.00
2019-05-19T00:07:03.168Z,86.10
2019-05-19T00:09:31.622Z,86.00
2019-05-19T00:12:00.065Z,86.30
2019-05-19T00:14:28.626Z,86.40
2019-05-19T00:16:57.200Z,86.20
2019-05-19T00:19:27.149Z,85.30
2019-05-19T00:21:55.818Z,85.40
2019-05-19T00:24:24.322Z,86.00
2019-05-19T00:26:52.766Z,85.80
2019-05-19T00:29:21.489Z,86.20
2019-05-19T00:31:49.936Z,86.30
2019-05-19T00:34:18.547Z,86.50
2019-05-19T00:36:47.028Z,86.30
2019-05-19T00:39:15.496Z,86.00
2019-05-19T00:41:43.968Z,85.90
2019-05-19T00:44:12.952Z,86.00
2019-05-19T00:46:41.437Z,86.10
2019-05-19T00:49:09.897Z,85.90
2019-05-19T00:51:38.791Z,85.80
2019-05-19T00:54:07.384Z,86.10
2019-05-19T00:56:36.153Z,86.10
2019-05-19T00:59:05.211Z,86.00
2019-05-19T01:01:33.911Z,86.10
2019-05-19T01:04:02.675Z,86.50
2019-05-19T01:06:31.493Z,87.30
2019-05-19T01:08:59.959Z,88.00
2019-05-19T01:11:28.446Z,87.80
2019-05-19T01:13:56.909Z,87.80
2019-05-19T01:16:25.451Z,88.40
2019-05-19T01:18:53.953Z,88.70
2019-05-19T01:21:23.376Z,89.20
2019-05-19T01:23:52.285Z,89.70
2019-05-19T01:26:20.709Z,88.50
2019-05-19T01:28:49.168Z,87.50
2019-05-19T01:31:17.740Z,86.90
2019-05-19T01:33:46.209Z,87.70
2019-05-19T01:36:15.038Z,88.20
2019-05-19T01:38:43.539Z,88.40
2019-05-19T01:41:12.451Z,88.70
2019-05-19T01:43:40.963Z,89.10
2019-05-19T01:46:09.467Z,89.30
2019-05-19T01:48:38.226Z,89.60
2019-05-19T01:51:06.744Z,89.60
2019-05-19T01:53:39.435Z,89.80
2019-05-19T01:56:07.970Z,90.00
2019-05-19T01:58:36.397Z,90.10
2019-05-19T02:01:04.944Z,90.10
2019-05-19T02:03:33.478Z,90.10
2019-05-19T02:06:01.924Z,89.90
2019-05-19T02:08:30.681Z,89.60
2019-05-19T02:10:59.198Z,89.50
2019-05-19T02:13:27.626Z,89.40
2019-05-19T02:15:56.082Z,89.10
2019-05-19T02:18:24.762Z,88.80
2019-05-19T02:20:53.561Z,89.10
2019-05-19T02:23:22.036Z,89.10
2019-05-19T02:25:50.504Z,89.10
2019-05-19T02:28:18.979Z,89.00
2019-05-19T02:30:47.514Z,89.20
2019-05-19T02:33:15.957Z,89.50
2019-05-19T02:35:44.620Z,89.00
2019-05-19T02:38:13.112Z,89.40
2019-05-19T02:40:45.054Z,89.20
2019-05-19T02:43:15.045Z,89.30
2019-05-19T02:45:43.982Z,89.40
2019-05-19T02:48:13.877Z,89.30
2019-05-19T02:50:52.151Z,89.50
2019-05-19T02:53:15.223Z,89.60
2019-05-19T02:55:44.499Z,89.90
2019-05-19T02:58:13.787Z,89.60
2019-05-19T03:00:43.667Z,90.00
2019-05-19T03:03:12.177Z,89.90
2019-05-19T03:05:40.972Z,90.00
2019-05-19T03:08:09.486Z,90.20
2019-05-19T03:10:38.037Z,90.30
2019-05-19T03:13:07.009Z,90.50
2019-05-19T03:15:35.457Z,90.60
2019-05-19T03:18:04.174Z,90.50
2019-05-19T03:20:32.970Z,90.60
2019-05-19T03:23:01.763Z,90.60
2019-05-19T03:25:30.485Z,90.50
2019-05-19T03:27:58.999Z,90.30
2019-05-19T03:30:54.316Z,90.20
2019-05-19T03:33:24.424Z,90.20
2019-05-19T03:35:52.910Z,90.10
2019-05-19T03:38:21.756Z,90.10
2019-05-19T03:40:50.188Z,90.30
2019-05-19T03:43:18.620Z,90.30
2019-05-19T03:45:47.052Z,90.30
2019-05-19T03:48:15.507Z,90.40
2019-05-19T03:50:43.928Z,90.40
2019-05-19T03:53:12.383Z,90.60
2019-05-19T03:55:40.832Z,90.70
2019-05-19T03:58:09.593Z,90.90
2019-05-19T04:00:38.289Z,90.90
2019-05-19T04:03:06.740Z,90.80
2019-05-19T04:05:35.166Z,91.00
2019-05-19T04:08:03.862Z,91.20
2019-05-19T04:10:32.545Z,91.10
2019-05-19T04:13:00.992Z,91.00
2019-05-19T04:15:29.455Z,91.00
2019-05-19T04:17:58.190Z,91.00
2019-05-19T04:20:26.688Z,91.10
2019-05-19T04:22:55.141Z,91.10
2019-05-19T04:25:23.850Z,91.10
2019-05-19T04:27:52.583Z,91.00
2019-05-19T04:30:21.157Z,91.00
2019-05-19T04:32:49.862Z,91.00
2019-05-19T04:35:18.293Z,91.00
2019-05-19T04:37:46.736Z,90.70
2019-05-19T04:40:15.305Z,90.50
2019-05-19T04:42:43.753Z,90.30
2019-05-19T04:45:12.973Z,90.10
2019-05-19T04:47:41.413Z,89.70
2019-05-19T04:50:10.369Z,89.20
2019-05-19T04:52:39.154Z,88.70
2019-05-19T04:55:07.888Z,88.40
2019-05-19T04:57:36.708Z,88.30
2019-05-19T05:00:07.429Z,88.00
2019-05-19T05:02:35.879Z,87.40
2019-05-19T05:05:05.691Z,87.80
2019-05-19T05:07:34.387Z,87.60
2019-05-19T05:10:03.085Z,87.70
2019-05-19T05:12:31.776Z,87.40
2019-05-19T05:15:00.212Z,87.70
2019-05-19T05:17:28.660Z,88.00
2019-05-19T05:19:57.096Z,88.70
2019-05-19T05:22:25.545Z,88.90
2019-05-19T05:24:53.991Z,89.50
2019-05-19T05:27:22.693Z,88.60
2019-05-19T05:29:51.380Z,88.40
2019-05-19T05:32:19.831Z,87.80
2019-05-19T05:34:48.522Z,87.60
2019-05-19T05:37:17.198Z,87.80
2019-05-19T05:39:45.961Z,87.40
2019-05-19T05:42:14.391Z,87.70
2019-05-19T05:44:42.843Z,87.40
2019-05-19T05:47:11.269Z,86.80
2019-05-19T05:49:39.973Z,87.50
2019-05-19T05:52:08.411Z,87.50
2019-05-19T05:54:36.906Z,87.10
2019-05-19T05:57:05.372Z,85.70
2019-05-19T05:59:33.830Z,84.80
2019-05-19T06:02:02.260Z,84.10
2019-05-19T06:04:30.775Z,83.00
2019-05-19T06:06:59.205Z,83.10
2019-05-19T06:09:27.893Z,82.60
2019-05-19T06:11:56.325Z,81.10
2019-05-19T06:14:24.761Z,77.20
2019-05-19T06:16:53.512Z,76.00
2019-05-19T06:19:21.948Z,75.30
2019-05-19T06:21:50.677Z,72.60
2019-05-19T06:24:19.241Z,68.70
2019-05-19T06:26:47.657Z,67.30
2019-05-19T06:29:16.103Z,68.30
2019-05-19T06:31:44.536Z,69.50
2019-05-19T06:34:12.977Z,66.30
2019-05-19T06:36:41.404Z,65.70
2019-05-19T06:39:09.850Z,62.70
2019-05-19T06:41:38.523Z,60.40
2019-05-19T06:44:07.304Z,61.00
2019-05-19T06:46:35.980Z,58.50
2019-05-19T06:49:04.420Z,59.00
2019-05-19T06:51:32.855Z,57.50
2019-05-19T06:54:01.291Z,59.30
2019-05-19T06:56:29.715Z,58.60
2019-05-19T06:58:58.497Z,57.60
2019-05-19T07:01:26.931Z,53.50
2019-05-19T07:03:55.769Z,54.80
2019-05-19T07:06:24.560Z,53.00
2019-05-19T07:08:53.340Z,51.20
2019-05-19T07:11:21.774Z,49.80
2019-05-19T07:13:50.226Z,50.70
2019-05-19T07:16:18.656Z,48.80
2019-05-19T07:18:47.091Z,49.30
2019-05-19T07:21:15.849Z,49.70
2019-05-19T07:23:44.281Z,49.50
2019-05-19T07:26:12.725Z,48.20
2019-05-19T07:28:41.149Z,49.50
2019-05-19T07:31:09.838Z,47.10
2019-05-19T07:33:38.265Z,45.50
2019-05-19T07:36:06.707Z,46.80
2019-05-19T07:38:35.132Z,45.10
2019-05-19T07:41:03.577Z,46.70
2019-05-19T07:43:32.005Z,47.10
2019-05-19T07:46:00.439Z,48.00
2019-05-19T07:48:28.888Z,46.40
2019-05-19T07:50:57.568Z,49.10
2019-05-19T07:53:26.017Z,49.70
2019-05-19T07:55:54.485Z,49.00
2019-05-19T07:58:22.921Z,47.00
2019-05-19T08:00:51.641Z,48.00
2019-05-19T08:03:20.188Z,48.10
2019-05-19T08:05:48.624Z,49.80
2019-05-19T08:08:17.053Z,47.50
2019-05-19T08:10:45.565Z,46.90
2019-05-19T08:13:13.992Z,47.50
2019-05-19T08:15:42.504Z,46.40
2019-05-19T08:18:10.930Z,46.00
2019-05-19T08:20:39.627Z,47.00
2019-05-19T08:23:08.056Z,47.00
2019-05-19T08:25:36.513Z,44.70
2019-05-19T08:28:08.747Z,46.00
2019-05-19T08:30:35.132Z,46.60
2019-05-19T08:33:03.617Z,47.90
2019-05-19T08:35:32.384Z,46.20
2019-05-19T08:38:01.074Z,46.30
2019-05-19T08:40:29.529Z,47.80
2019-05-19T08:42:58.020Z,49.60
2019-05-19T08:45:26.714Z,51.00
2019-05-19T08:47:55.136Z,50.30
2019-05-19T08:50:23.821Z,48.30
2019-05-19T08:52:52.250Z,46.90
2019-05-19T08:55:20.940Z,47.20
2019-05-19T08:57:49.618Z,46.10
2019-05-19T09:00:18.297Z,46.20
2019-05-19T09:02:46.721Z,46.00
2019-05-19T09:05:15.239Z,47.20
2019-05-19T09:07:43.676Z,43.90
2019-05-19T09:10:12.285Z,42.40
2019-05-19T09:12:40.726Z,43.30
2019-05-19T09:15:09.823Z,42.50
2019-05-19T09:17:38.337Z,43.10
2019-05-19T09:20:07.030Z,42.00
2019-05-19T09:22:35.489Z,43.20
2019-05-19T09:25:08.201Z,41.00
2019-05-19T09:27:36.643Z,42.50
2019-05-19T09:30:09.969Z,40.60
2019-05-19T09:32:38.780Z,42.40
2019-05-19T09:35:07.951Z,40.50
2019-05-19T09:37:36.456Z,40.20
2019-05-19T09:40:06.930Z,39.60
2019-05-19T09:42:35.642Z,40.60
2019-05-19T09:45:06.868Z,39.80
2019-05-19T09:47:35.574Z,39.70
2019-05-19T09:50:05.765Z,41.00
2019-05-19T09:52:34.205Z,39.30
2019-05-19T09:55:02.711Z,39.90
2019-05-19T09:57:31.441Z,38.50
2019-05-19T09:59:59.937Z,36.70
2019-05-19T10:02:28.690Z,36.70
2019-05-19T10:04:57.189Z,37.30
2019-05-19T10:07:25.629Z,37.20
2019-05-19T10:09:57.232Z,34.60
2019-05-19T10:12:25.710Z,34.40
2019-05-19T10:14:54.196Z,34.20
2019-05-19T10:17:22.785Z,36.20
2019-05-19T10:19:51.361Z,34.40
2019-05-19T10:22:20.226Z,34.80
2019-05-19T10:25:03.792Z,36.60
2019-05-19T10:27:21.583Z,35.30
2019-05-19T10:29:49.175Z,33.80
2019-05-19T10:32:17.608Z,33.60
2019-05-19T10:34:46.071Z,33.70
2019-05-19T10:37:14.540Z,33.10
2019-05-19T10:39:43.299Z,31.90
2019-05-19T10:42:11.968Z,31.90
2019-05-19T10:44:40.436Z,32.90
2019-05-19T10:47:08.870Z,32.40
2019-05-19T10:49:37.737Z,32.10
2019-05-19T10:52:06.256Z,35.30
2019-05-19T10:54:34.953Z,34.50
2019-05-19T10:57:03.375Z,32.40
2019-05-19T10:59:31.920Z,33.70
2019-05-19T11:02:00.354Z,34.70
2019-05-19T11:04:28.834Z,33.50
2019-05-19T11:06:57.289Z,34.70
2019-05-19T11:09:26.205Z,37.60
2019-05-19T11:11:54.653Z,37.00
2019-05-19T11:14:23.627Z,38.10
2019-05-19T11:16:52.143Z,37.70
2019-05-19T11:19:21.049Z,38.10
2019-05-19T11:21:49.493Z,39.00
2019-05-19T11:24:18.321Z,38.10
2019-05-19T11:26:46.744Z,39.20
2019-05-19T11:29:15.473Z,41.80
2019-05-19T11:31:43.902Z,37.10
2019-05-19T11:34:12.392Z,37.90
2019-05-19T11:36:40.832Z,37.70
2019-05-19T11:39:09.805Z,37.30
2019-05-19T11:41:38.446Z,37.00
2019-05-19T11:44:07.012Z,35.70
2019-05-19T11:46:35.541Z,37.70
2019-05-19T11:49:04.042Z,37.40
2019-05-19T11:51:32.499Z,38.20
2019-05-19T11:54:01.032Z,38.40
2019-05-19T11:56:29.591Z,34.90
2019-05-19T11:58:58.099Z,36.70
2019-05-19T12:01:26.873Z,36.50
2019-05-19T12:03:55.633Z,37.30
2019-05-19T12:06:38.082Z,37.40
2019-05-19T12:08:54.497Z,39.10
2019-05-19T12:11:22.931Z,35.50
2019-05-19T12:13:51.406Z,33.50
2019-05-19T12:16:19.906Z,36.60
2019-05-19T12:18:48.333Z,36.30
2019-05-19T12:21:16.876Z,33.20
2019-05-19T12:23:45.343Z,32.40
2019-05-19T12:26:22.615Z,33.40
2019-05-19T12:28:44.086Z,36.00
2019-05-19T12:31:12.892Z,37.50
2019-05-19T12:33:51.518Z,35.50
2019-05-19T12:36:11.475Z,34.40
2019-05-19T12:38:39.976Z,34.60
2019-05-19T12:41:08.404Z,34.70
2019-05-19T12:43:36.868Z,34.30
2019-05-19T12:46:15.679Z,35.30
2019-05-19T12:48:35.546Z,38.00
2019-05-19T12:51:04.558Z,37.30
2019-05-19T12:53:33.271Z,34.20
2019-05-19T12:56:01.686Z,35.80
2019-05-19T12:58:30.147Z,33.30
2019-05-19T13:00:58.576Z,34.00
2019-05-19T13:03:27.079Z,36.50
2019-05-19T13:05:55.504Z,36.30
2019-05-19T13:08:23.972Z,36.70
2019-05-19T13:10:52.710Z,36.90
2019-05-19T13:13:21.169Z,34.70
2019-05-19T13:15:49.594Z,36.70
2019-05-19T13:18:18.115Z,40.00
2019-05-19T13:20:46.945Z,39.00
2019-05-19T13:23:15.395Z,36.30
2019-05-19T13:25:43.860Z,34.60
2019-05-19T13:28:12.296Z,34.30
2019-05-19T13:30:43.575Z,39.90
2019-05-19T13:33:11.076Z,42.80
2019-05-19T13:35:39.601Z,45.20
2019-05-19T13:38:08.113Z,47.20
2019-05-19T13:40:36.569Z,48.90
2019-05-19T13:43:05.076Z,50.90
2019-05-19T13:45:33.617Z,50.40
2019-05-19T13:48:02.385Z,49.50
2019-05-19T13:50:30.836Z,49.50
2019-05-19T13:52:59.381Z,47.00
2019-05-19T13:55:27.804Z,46.90
2019-05-19T13:57:56.278Z,47.80
2019-05-19T14:00:24.743Z,47.10
2019-05-19T14:02:53.441Z,45.30
2019-05-19T14:05:21.864Z,46.90
2019-05-19T14:07:50.341Z,47.20
2019-05-19T14:10:18.855Z,48.80
2019-05-19T14:12:47.338Z,49.70
2019-05-19T14:15:15.760Z,50.80
2019-05-19T14:17:44.226Z,51.30
2019-05-19T14:20:13.499Z,52.60
2019-05-19T14:22:41.957Z,53.10
2019-05-19T14:25:10.551Z,53.50
2019-05-19T14:27:39.497Z,53.40
2019-05-19T14:30:08.564Z,53.80
2019-05-19T14:32:37.274Z,52.70
2019-05-19T14:35:08.937Z,54.40
2019-05-19T14:37:37.398Z,55.30
2019-05-19T14:40:06.564Z,55.10
2019-05-19T14:42:52.556Z,54.70
2019-05-19T14:45:21.117Z,55.20
2019-05-19T14:47:49.733Z,55.10
2019-05-19T14:50:18.293Z,55.10
2019-05-19T14:52:47.355Z,55.80
2019-05-19T14:55:15.881Z,56.90
2019-05-19T14:57:45.558Z,56.30
2019-05-19T15:00:14.852Z,54.90
2019-05-19T15:02:43.391Z,55.50
2019-05-19T15:05:13.000Z,55.50
2019-05-19T15:07:41.841Z,54.40
2019-05-19T15:10:10.537Z,52.30
2019-05-19T15:12:38.957Z,52.10
2019-05-19T15:15:08.127Z,51.10
2019-05-19T15:17:36.785Z,49.50
2019-05-19T15:20:08.415Z,49.90
2019-05-19T15:22:36.897Z,50.00
2019-05-19T15:25:05.894Z,50.30
2019-05-19T15:27:34.316Z,50.60
2019-05-19T15:30:12.222Z,49.40
2019-05-19T15:32:34.021Z,49.60
2019-05-19T15:35:02.486Z,50.50
2019-05-19T15:37:30.927Z,51.30
2019-05-19T15:39:59.801Z,52.40
2019-05-19T15:42:28.428Z,51.60
2019-05-19T15:44:56.969Z,52.50
2019-05-19T15:47:25.406Z,53.90
2019-05-19T15:49:53.919Z,54.40
2019-05-19T15:52:22.351Z,55.30
2019-05-19T15:54:50.815Z,55.80
2019-05-19T15:57:19.262Z,56.20
2019-05-19T15:59:47.989Z,56.80
2019-05-19T16:02:16.411Z,56.60
2019-05-19T16:04:44.878Z,56.80
2019-05-19T16:07:13.303Z,56.30
2019-05-19T16:09:41.806Z,57.20
2019-05-19T16:12:10.609Z,57.50
2019-05-19T16:14:39.077Z,58.00
2019-05-19T16:17:07.499Z,57.80
2019-05-19T16:19:35.969Z,57.70
2019-05-19T16:22:04.402Z,57.70
2019-05-19T16:24:32.870Z,58.20
2019-05-19T16:27:01.547Z,58.80
2019-05-19T16:29:30.261Z,58.50
2019-05-19T16:31:58.683Z,58.90
2019-05-19T16:34:27.164Z,58.70
2019-05-19T16:36:55.611Z,59.60
2019-05-19T16:39:24.072Z,59.70
2019-05-19T16:41:52.788Z,59.70
2019-05-19T16:44:21.251Z,58.70
2019-05-19T16:46:49.676Z,59.30
2019-05-19T16:49:18.162Z,58.70
2019-05-19T16:51:47.063Z,59.20
2019-05-19T16:54:17.183Z,59.00
2019-05-19T16:56:45.665Z,60.50
2019-05-19T16:59:14.164Z,61.50
2019-05-19T17:01:42.656Z,61.30
2019-05-19T17:04:11.119Z,61.00
2019-05-19T17:06:39.551Z,60.40
2019-05-19T17:09:08.083Z,61.50
2019-05-19T17:11:36.924Z,61.70
2019-05-19T17:14:05.352Z,62.50
2019-05-19T17:16:34.224Z,63.70
2019-05-19T17:19:02.707Z,63.90
2019-05-19T17:21:31.214Z,65.00
2019-05-19T17:23:59.648Z,65.80
2019-05-19T17:26:28.147Z,66.00
2019-05-19T17:29:00.659Z,67.10
2019-05-19T17:31:26.772Z,68.00
2019-05-19T17:33:55.489Z,67.90
2019-05-19T17:36:27.214Z,68.30
2019-05-19T17:38:54.169Z,68.10
2019-05-19T17:41:23.048Z,68.20
2019-05-19T17:43:51.771Z,69.10
2019-05-19T17:46:20.433Z,68.90
2019-05-19T17:48:48.912Z,69.00
2019-05-19T17:51:17.726Z,68.20
2019-05-19T17:53:46.208Z,68.60
2019-05-19T17:56:16.177Z,68.50
2019-05-19T17:58:45.914Z,67.70
2019-05-19T18:01:14.718Z,68.00
2019-05-19T18:03:44.271Z,68.10
2019-05-19T18:06:12.746Z,66.90
2019-05-19T18:08:41.213Z,67.10
2019-05-19T18:11:09.750Z,66.90
2019-05-19T18:13:38.191Z,67.40
2019-05-19T18:16:06.673Z,67.20
2019-05-19T18:18:35.095Z,67.60
2019-05-19T18:21:03.523Z,66.30
2019-05-19T18:23:32.028Z,66.00
2019-05-19T18:26:00.522Z,66.00
2019-05-19T18:28:28.995Z,65.40
2019-05-19T18:30:57.745Z,65.20
2019-05-19T18:33:26.235Z,65.70
2019-05-19T18:35:55.114Z,65.20
2019-05-19T18:38:24.026Z,65.90
2019-05-19T18:40:52.451Z,66.10
2019-05-19T18:43:20.937Z,65.90
2019-05-19T18:45:49.435Z,65.70
2019-05-19T18:48:18.220Z,66.00
2019-05-19T18:50:46.702Z,66.60
2019-05-19T18:53:15.176Z,66.60
2019-05-19T18:55:43.762Z,68.00
2019-05-19T18:58:12.265Z,67.30
2019-05-19T19:00:40.689Z,67.60
2019-05-19T19:03:09.229Z,67.70
2019-05-19T19:05:37.715Z,68.60
2019-05-19T19:08:06.271Z,68.40
2019-05-19T19:10:34.685Z,68.10
2019-05-19T19:13:03.182Z,68.80
2019-05-19T19:15:31.876Z,69.70
2019-05-19T19:18:00.696Z,70.00
2019-05-19T19:20:29.113Z,71.30
2019-05-19T19:22:57.816Z,70.80
2019-05-19T19:25:26.265Z,71.30
2019-05-19T19:27:54.692Z,72.00
2019-05-19T19:30:23.189Z,72.20
2019-05-19T19:32:51.884Z,72.70
2019-05-19T19:35:20.349Z,73.20
2019-05-19T19:37:48.781Z,73.20
2019-05-19T19:40:26.477Z,73.60
2019-05-19T19:42:54.905Z,74.30
2019-05-19T19:45:23.705Z,74.70
2019-05-19T19:47:52.136Z,75.10
2019-05-19T19:50:20.643Z,75.40
2019-05-19T19:52:49.384Z,75.70
2019-05-19T19:55:17.843Z,75.90
2019-05-19T19:57:46.302Z,76.10
2019-05-19T20:00:18.679Z,76.60
2019-05-19T20:02:46.770Z,76.70
2019-05-19T20:05:15.215Z,77.20
2019-05-19T20:07:43.905Z,77.50
2019-05-19T20:10:12.340Z,78.40
2019-05-19T20:12:40.775Z,78.60
2019-05-19T20:15:12.281Z,78.80
2019-05-19T20:17:40.966Z,78.60
2019-05-19T20:20:09.706Z,78.50
2019-05-19T20:22:38.402Z,78.00
2019-05-19T20:25:07.214Z,78.30
2019-05-19T20:27:35.745Z,77.90
2019-05-19T20:30:05.815Z,77.80
2019-05-19T20:32:34.252Z,77.80
2019-05-19T20:35:02.767Z,77.90
2019-05-19T20:37:31.305Z,78.00
2019-05-19T20:39:59.730Z,77.90
2019-05-19T20:42:28.220Z,78.20
2019-05-19T20:44:56.652Z,78.40
2019-05-19T20:47:25.118Z,78.60
2019-05-19T20:49:53.585Z,79.00
2019-05-19T20:52:22.091Z,79.30
2019-05-19T20:54:50.622Z,79.70
2019-05-19T20:57:19.308Z,80.10
2019-05-19T20:59:47.759Z,80.40
2019-05-19T21:02:16.378Z,80.60
2019-05-19T21:04:45.048Z,81.10
2019-05-19T21:07:13.508Z,81.50
2019-05-19T21:09:42.041Z,81.80
2019-05-19T21:12:10.526Z,82.10
2019-05-19T21:14:38.949Z,82.30
2019-05-19T21:17:07.449Z,82.50
2019-05-19T21:19:36.178Z,83.00
2019-05-19T21:22:05.001Z,83.50
2019-05-19T21:24:33.444Z,83.70
2019-05-19T21:27:02.242Z,84.10
2019-05-19T21:29:30.737Z,84.10
2019-05-19T21:31:59.197Z,84.20
2019-05-19T21:34:27.685Z,84.10
2019-05-19T21:36:56.206Z,83.80
2019-05-19T21:39:24.632Z,83.90
2019-05-19T21:41:53.080Z,84.00
2019-05-19T21:44:21.772Z,83.90
2019-05-19T21:46:50.220Z,84.30
2019-05-19T21:49:18.652Z,84.80
2019-05-19T21:51:47.122Z,85.30
2019-05-19T21:54:15.552Z,85.40
2019-05-19T21:56:43.997Z,85.50
2019-05-19T21:59:12.431Z,86.10
2019-05-19T22:01:40.877Z,87.10
2019-05-19T22:04:09.568Z,86.50
2019-05-19T22:06:39.640Z,86.70
2019-05-19T22:09:08.345Z,87.20
2019-05-19T22:11:36.781Z,87.30
2019-05-19T22:14:05.224Z,87.60
2019-05-19T22:16:33.660Z,87.70
2019-05-19T22:19:02.109Z,88.00
2019-05-19T22:21:30.543Z,88.10
2019-05-19T22:23:58.988Z,88.20
2019-05-19T22:26:27.715Z,88.40
2019-05-19T22:28:56.153Z,88.80
2019-05-19T22:31:36.283Z,89.10
2019-05-19T22:33:54.774Z,89.30
2019-05-19T22:36:23.210Z,89.50
2019-05-19T22:38:51.654Z,89.60
2019-05-19T22:41:20.088Z,89.90
2019-05-19T22:43:48.538Z,90.00
2019-05-19T22:46:16.993Z,89.80
2019-05-19T22:48:45.685Z,89.90
2019-05-19T22:51:14.120Z,89.80
2019-05-19T22:53:42.820Z,89.80
2019-05-19T22:56:11.270Z,89.80
2019-05-19T22:58:41.530Z,90.00
2019-05-19T23:01:09.895Z,90.10
2019-05-19T23:03:38.656Z,90.40
2019-05-19T23:06:07.091Z,90.50
2019-05-19T23:08:35.695Z,90.60
2019-05-19T23:11:04.247Z,90.70
2019-05-19T23:13:32.689Z,90.80
2019-05-19T23:16:01.393Z,90.80
2019-05-19T23:18:29.846Z,90.90
2019-05-19T23:20:58.329Z,91.10
2019-05-19T23:23:26.862Z,91.20
2019-05-19T23:25:55.294Z,91.30
2019-05-19T23:28:23.752Z,91.40
2019-05-19T23:30:52.190Z,91.40
2019-05-19T23:33:20.642Z,91.70
2019-05-19T23:35:49.072Z,91.30
2019-05-19T23:38:17.520Z,91.60
2019-05-19T23:40:45.974Z,91.60
2019-05-19T23:43:14.439Z,91.60
2019-05-19T23:45:42.861Z,91.50
2019-05-19T23:48:11.324Z,91.70
2019-05-19T23:50:40.024Z,91.60
2019-05-19T23:53:08.478Z,91.60
2019-05-19T23:55:37.200Z,91.50
2019-05-19T23:58:05.644Z,91.50
